createdAt,value
2023-02-03T00:00:30.568Z,0.41
2023-02-03T00:02:57.560Z,0.39
2023-02-03T00:05:24.921Z,0.62
2023-02-03T00:07:52.011Z,0.51
2023-02-03T00:10:19.446Z,0.46
2023-02-03T00:12:46.024Z,0.38
2023-02-03T00:15:12.660Z,0.31
2023-02-03T00:17:39.249Z,0.19
2023-02-03T00:20:06.376Z,0.06
2023-02-03T00:22:32.960Z,0.17
2023-02-03T00:24:59.663Z,0.09
2023-02-03T00:27:26.465Z,0.04
2023-02-03T00:29:53.077Z,0.26
2023-02-03T00:32:19.876Z,0.19
2023-02-03T00:34:46.574Z,0.03
2023-02-03T00:37:13.517Z,0.04
2023-02-03T00:39:40.163Z,0.20
2023-02-03T00:42:07.049Z,0.05
2023-02-03T00:44:33.720Z,0.12
2023-02-03T00:47:00.397Z,0.04
2023-02-03T00:49:26.993Z,-0.05
2023-02-03T00:51:54.913Z,-0.05
2023-02-03T00:54:21.503Z,-0.02
2023-02-03T00:56:48.122Z,0.02
2023-02-03T00:59:14.737Z,0.04
2023-02-03T01:01:41.418Z,-0.14
2023-02-03T01:04:08.068Z,-0.14
2023-02-03T01:06:34.716Z,-0.08
2023-02-03T01:09:04.137Z,-0.24
2023-02-03T01:11:32.478Z,-0.08
2023-02-03T01:13:59.248Z,-0.22
2023-02-03T01:16:28.490Z,-0.18
2023-02-03T01:18:56.064Z,-0.16
2023-02-03T01:21:26.074Z,-0.21
2023-02-03T01:23:54.104Z,-0.27
2023-02-03T01:26:23.493Z,-0.21
2023-02-03T01:28:52.886Z,-0.31
2023-02-03T01:31:23.527Z,-0.32
2023-02-03T01:33:52.428Z,-0.27
2023-02-03T01:36:19.007Z,-0.29
2023-02-03T01:38:46.467Z,-0.27
2023-02-03T01:41:17.183Z,-0.55
2023-02-03T01:43:49.318Z,-0.31
2023-02-03T01:46:35.561Z,-0.41
2023-02-03T01:49:13.111Z,-0.32
2023-02-03T01:51:43.331Z,-0.03
2023-02-03T01:54:14.222Z,-0.47
2023-02-03T01:56:45.780Z,-0.55
2023-02-03T01:59:16.297Z,-0.56
2023-02-03T02:01:43.927Z,-0.48
2023-02-03T02:04:11.519Z,-0.49
2023-02-03T02:06:38.426Z,-0.32
2023-02-03T02:09:05.651Z,-0.34
2023-02-03T02:11:32.235Z,-0.48
2023-02-03T02:14:01.453Z,-0.63
2023-02-03T02:16:49.369Z,-0.63
2023-02-03T02:19:34.632Z,-0.62
2023-02-03T02:22:01.254Z,-0.52
2023-02-03T02:24:46.591Z,-0.31
2023-02-03T02:27:50.914Z,-0.31
2023-02-03T02:31:04.965Z,-0.41
2023-02-03T02:34:03.829Z,-0.68
2023-02-03T02:36:43.086Z,-0.77
2023-02-03T02:39:19.051Z,-0.37
2023-02-03T02:42:04.181Z,-0.26
2023-02-03T02:44:51.256Z,-0.41
2023-02-03T02:47:19.922Z,-0.41
2023-02-03T02:50:00.604Z,-0.14
2023-02-03T02:52:31.879Z,-0.26
2023-02-03T02:55:05.977Z,-0.66
2023-02-03T02:57:35.955Z,-0.81
2023-02-03T03:00:04.150Z,-1.02
2023-02-03T03:02:35.124Z,-0.96
2023-02-03T03:05:07.491Z,-0.85
2023-02-03T03:07:43.499Z,-0.74
2023-02-03T03:10:15.187Z,-0.46
2023-02-03T03:12:50.327Z,-0.92
2023-02-03T03:15:27.203Z,-0.78
2023-02-03T03:18:06.289Z,-0.49
2023-02-03T03:20:35.523Z,-0.74
2023-02-03T03:23:08.107Z,-0.62
2023-02-03T03:25:51.364Z,-0.44
2023-02-03T03:28:25.327Z,-0.60
2023-02-03T03:30:52.819Z,-0.47
2023-02-03T03:33:21.711Z,-0.32
2023-02-03T03:35:49.647Z,-0.70
2023-02-03T03:38:30.003Z,-0.55
2023-02-03T03:41:14.014Z,-0.91
2023-02-03T03:43:45.350Z,-0.69
2023-02-03T03:46:42.681Z,-0.49
2023-02-03T03:49:12.117Z,-0.25
2023-02-03T03:51:51.126Z,-0.87
2023-02-03T03:54:22.427Z,-0.66
2023-02-03T03:57:10.237Z,-1.01
2023-02-03T03:59:41.681Z,-0.68
2023-02-03T04:02:08.374Z,-0.85
2023-02-03T04:04:37.894Z,-1.37
2023-02-03T04:07:04.506Z,-1.45
2023-02-03T04:09:31.312Z,-1.15
2023-02-03T04:11:58.001Z,-0.94
2023-02-03T04:14:24.573Z,-0.80
2023-02-03T04:16:51.252Z,-1.02
2023-02-03T04:19:17.825Z,-1.06
2023-02-03T04:21:44.431Z,-1.21
2023-02-03T04:24:11.214Z,-1.19
2023-02-03T04:26:37.980Z,-1.07
2023-02-03T04:29:04.710Z,-0.98
2023-02-03T04:31:32.036Z,-1.03
2023-02-03T04:33:58.735Z,-1.06
2023-02-03T04:36:25.454Z,-1.13
2023-02-03T04:38:52.106Z,-0.85
2023-02-03T04:41:18.826Z,-0.89
2023-02-03T04:43:45.534Z,-0.86
2023-02-03T04:46:12.181Z,-0.80
2023-02-03T04:48:38.798Z,-0.87
2023-02-03T04:51:08.317Z,-0.60
2023-02-03T04:53:35.165Z,-0.60
2023-02-03T04:56:01.987Z,-0.71
2023-02-03T04:58:28.636Z,-0.53
2023-02-03T05:00:55.550Z,-0.53
2023-02-03T05:03:24.927Z,-0.53
2023-02-03T05:05:52.659Z,-0.38
2023-02-03T05:08:19.258Z,-0.32
2023-02-03T05:10:46.419Z,-0.13
2023-02-03T05:13:13.039Z,-0.20
2023-02-03T05:15:39.641Z,-0.25
2023-02-03T05:18:06.675Z,-0.26
2023-02-03T05:20:33.479Z,-0.29
2023-02-03T05:23:00.069Z,-0.12
2023-02-03T05:25:26.957Z,-0.09
2023-02-03T05:27:53.536Z,-0.33
2023-02-03T05:30:20.240Z,0.36
2023-02-03T05:32:46.827Z,0.36
2023-02-03T05:35:13.399Z,0.26
2023-02-03T05:37:39.975Z,0.24
2023-02-03T05:40:07.334Z,0.08
2023-02-03T05:42:33.940Z,-0.16
2023-02-03T05:45:00.583Z,-0.24
2023-02-03T05:47:27.159Z,-0.37
2023-02-03T05:49:53.869Z,-0.44
2023-02-03T05:52:20.478Z,-0.79
2023-02-03T05:54:47.057Z,-0.61
2023-02-03T05:57:13.671Z,-0.96
2023-02-03T05:59:41.895Z,-0.88
2023-02-03T06:02:08.473Z,-0.79
2023-02-03T06:04:35.145Z,-0.54
2023-02-03T06:07:01.867Z,-0.99
2023-02-03T06:09:28.472Z,-0.66
2023-02-03T06:11:55.107Z,-0.69
2023-02-03T06:14:21.771Z,-0.81
2023-02-03T06:16:48.466Z,-0.88
2023-02-03T06:19:16.340Z,-0.93
2023-02-03T06:21:43.151Z,-0.72
2023-02-03T06:24:10.869Z,-0.73
2023-02-03T06:26:37.524Z,-0.34
2023-02-03T06:29:04.137Z,-0.85
2023-02-03T06:31:30.840Z,-0.83
2023-02-03T06:33:57.556Z,-0.91
2023-02-03T06:36:24.146Z,-0.78
2023-02-03T06:38:50.750Z,-0.48
2023-02-03T06:41:17.459Z,-0.50
2023-02-03T06:43:44.042Z,-0.51
2023-02-03T06:46:10.741Z,-0.58
2023-02-03T06:48:37.400Z,-0.52
2023-02-03T06:51:04.183Z,-0.38
2023-02-03T06:53:30.855Z,-0.38
2023-02-03T06:55:57.493Z,-0.27
2023-02-03T06:58:24.183Z,-0.26
2023-02-03T07:00:50.770Z,-0.29
2023-02-03T07:03:17.401Z,-0.21
2023-02-03T07:05:43.999Z,-0.28
2023-02-03T07:08:10.586Z,-0.37
2023-02-03T07:10:37.195Z,-0.47
2023-02-03T07:13:05.799Z,-0.42
2023-02-03T07:15:32.630Z,-0.29
2023-02-03T07:17:59.320Z,-0.28
2023-02-03T07:20:26.770Z,-0.34
2023-02-03T07:22:55.673Z,-0.04
2023-02-03T07:25:23.209Z,-0.63
2023-02-03T07:27:49.846Z,-0.63
2023-02-03T07:30:16.797Z,-0.67
2023-02-03T07:32:50.146Z,-0.45
2023-02-03T07:35:16.980Z,-0.45
2023-02-03T07:37:43.912Z,-0.12
2023-02-03T07:40:12.364Z,0.61
2023-02-03T07:42:42.449Z,0.52
2023-02-03T07:45:10.271Z,0.84
2023-02-03T07:47:36.983Z,0.91
2023-02-03T07:50:04.813Z,0.22
2023-02-03T07:52:31.456Z,0.80
2023-02-03T07:54:58.059Z,0.36
2023-02-03T07:57:24.732Z,0.55
2023-02-03T07:59:51.393Z,0.84
2023-02-03T08:02:18.030Z,1.04
2023-02-03T08:04:44.700Z,0.47
2023-02-03T08:07:11.485Z,0.64
2023-02-03T08:09:38.088Z,0.15
2023-02-03T08:12:05.019Z,0.30
2023-02-03T08:14:31.645Z,0.34
2023-02-03T08:16:58.248Z,0.77
2023-02-03T08:19:24.942Z,0.21
2023-02-03T08:21:51.547Z,0.47
2023-02-03T08:24:18.180Z,0.04
2023-02-03T08:26:44.827Z,0.41
2023-02-03T08:29:11.400Z,0.83
2023-02-03T08:31:38.157Z,0.33
2023-02-03T08:34:04.866Z,-0.02
2023-02-03T08:36:31.488Z,-0.05
2023-02-03T08:38:58.074Z,0.13
2023-02-03T08:41:24.734Z,0.77
2023-02-03T08:43:51.335Z,0.03
2023-02-03T08:46:17.954Z,-0.09
2023-02-03T08:48:44.708Z,0.39
2023-02-03T08:51:14.276Z,-0.26
2023-02-03T08:53:41.214Z,0.49
2023-02-03T08:56:14.069Z,0.55
2023-02-03T08:58:40.840Z,-0.20
2023-02-03T09:01:09.815Z,-0.27
2023-02-03T09:03:37.408Z,-0.05
2023-02-03T09:06:05.420Z,0.46
2023-02-03T09:08:32.035Z,-0.11
2023-02-03T09:10:58.756Z,0.11
2023-02-03T09:13:25.487Z,0.36
2023-02-03T09:15:52.159Z,0.10
2023-02-03T09:18:18.921Z,-0.38
2023-02-03T09:20:45.671Z,-0.64
2023-02-03T09:23:12.420Z,-0.52
2023-02-03T09:25:39.113Z,-1.17
2023-02-03T09:28:05.768Z,-0.99
2023-02-03T09:30:32.750Z,-0.84
2023-02-03T09:32:59.571Z,-1.19
2023-02-03T09:35:26.223Z,-1.47
2023-02-03T09:37:53.051Z,-1.19
2023-02-03T09:40:31.169Z,-1.49
2023-02-03T09:43:03.340Z,-1.35
2023-02-03T09:45:31.785Z,-1.89
2023-02-03T09:48:22.805Z,-1.75
2023-02-03T09:50:51.106Z,-1.39
2023-02-03T09:53:39.551Z,-1.25
2023-02-03T09:56:06.185Z,-1.07
2023-02-03T09:58:34.457Z,-1.11
2023-02-03T10:01:03.946Z,-1.54
2023-02-03T10:03:57.925Z,-1.29
2023-02-03T10:06:42.050Z,-1.14
2023-02-03T10:09:19.914Z,-0.86
2023-02-03T10:12:01.271Z,-0.74
2023-02-03T10:14:46.594Z,-0.48
2023-02-03T10:17:19.190Z,-0.88
2023-02-03T10:20:06.004Z,-0.92
2023-02-03T10:22:38.158Z,-1.28
2023-02-03T10:25:21.394Z,-1.57
2023-02-03T10:27:49.566Z,-1.51
2023-02-03T10:30:23.446Z,-1.17
2023-02-03T10:33:02.367Z,-0.59
2023-02-03T10:35:39.458Z,-1.09
2023-02-03T10:38:15.534Z,-0.29
2023-02-03T10:40:42.380Z,-1.04
2023-02-03T10:43:10.842Z,-1.15
2023-02-03T10:45:39.205Z,-0.88
2023-02-03T10:48:13.491Z,-0.57
2023-02-03T10:50:46.967Z,-0.72
2023-02-03T10:53:26.557Z,-0.36
2023-02-03T10:56:05.124Z,-0.74
2023-02-03T10:58:33.586Z,-1.25
2023-02-03T11:01:11.684Z,-0.54
2023-02-03T11:03:42.018Z,-0.85
2023-02-03T11:06:14.425Z,-0.59
2023-02-03T11:08:49.130Z,-0.53
2023-02-03T11:11:23.245Z,-0.48
2023-02-03T11:13:56.275Z,-0.37
2023-02-03T11:16:23.834Z,-0.73
2023-02-03T11:19:16.871Z,-0.36
2023-02-03T11:21:46.741Z,-0.79
2023-02-03T11:24:29.858Z,-0.84
2023-02-03T11:27:00.741Z,-0.68
2023-02-03T11:29:30.501Z,-0.70
2023-02-03T11:32:00.380Z,-1.20
2023-02-03T11:34:34.555Z,-0.78
2023-02-03T11:37:25.840Z,-0.89
2023-02-03T11:40:07.921Z,-1.30
2023-02-03T11:42:36.271Z,-1.39
2023-02-03T11:45:30.453Z,-0.95
2023-02-03T11:48:02.992Z,-0.88
2023-02-03T11:50:36.201Z,-0.49
2023-02-03T11:53:56.319Z,-0.41
2023-02-03T11:56:50.334Z,-0.77
2023-02-03T11:59:25.997Z,-0.63
2023-02-03T12:02:30.260Z,-0.77
2023-02-03T12:05:01.012Z,-0.68
2023-02-03T12:07:36.590Z,-0.67
2023-02-03T12:10:18.102Z,-0.67
2023-02-03T12:12:50.700Z,-0.80
2023-02-03T12:15:38.630Z,-0.48
2023-02-03T12:18:10.895Z,-0.77
2023-02-03T12:20:55.927Z,-1.17
2023-02-03T12:23:31.396Z,-1.13
2023-02-03T12:26:24.444Z,-1.01
2023-02-03T12:29:29.129Z,-1.04
2023-02-03T12:32:06.819Z,-0.85
2023-02-03T12:34:55.108Z,-0.71
2023-02-03T12:37:48.095Z,-0.42
2023-02-03T12:40:23.433Z,-0.26
2023-02-03T12:42:59.270Z,-0.36
2023-02-03T12:45:30.880Z,-0.35
2023-02-03T12:48:20.843Z,-0.26
2023-02-03T12:50:54.804Z,-0.54
2023-02-03T12:53:29.293Z,-0.85
2023-02-03T12:56:09.003Z,-0.52
2023-02-03T12:58:51.072Z,-0.48
2023-02-03T13:01:35.872Z,-0.46
2023-02-03T13:04:24.999Z,-0.61
2023-02-03T13:06:51.594Z,-0.85
2023-02-03T13:09:50.031Z,-0.94
2023-02-03T13:12:19.463Z,-0.79
2023-02-03T13:14:46.223Z,-0.89
2023-02-03T13:17:18.465Z,-0.59
2023-02-03T13:19:50.227Z,-1.01
2023-02-03T13:22:18.183Z,-0.78
2023-02-03T13:25:06.232Z,-0.65
2023-02-03T13:27:58.142Z,-0.08
2023-02-03T13:30:43.455Z,-0.60
2023-02-03T13:33:43.887Z,-0.70
2023-02-03T13:36:42.074Z,-0.38
2023-02-03T13:39:30.381Z,-0.15
2023-02-03T13:42:20.711Z,-0.53
2023-02-03T13:44:54.617Z,-0.20
2023-02-03T13:47:31.918Z,0.14
2023-02-03T13:50:02.913Z,0.00
2023-02-03T13:52:54.335Z,0.19
2023-02-03T13:55:44.258Z,-0.02
2023-02-03T13:58:33.194Z,0.37
2023-02-03T14:01:05.145Z,-0.26
2023-02-03T14:03:31.769Z,-0.43
2023-02-03T14:05:59.626Z,-0.09
2023-02-03T14:08:26.336Z,-0.17
2023-02-03T14:11:30.340Z,-0.34
2023-02-03T14:14:16.853Z,0.22
2023-02-03T14:16:44.803Z,-0.17
2023-02-03T14:19:29.843Z,-0.11
2023-02-03T14:22:07.110Z,0.17
2023-02-03T14:24:40.652Z,0.17
2023-02-03T14:27:36.895Z,0.66
2023-02-03T14:30:10.520Z,0.13
2023-02-03T14:32:57.786Z,-0.23
2023-02-03T14:35:30.689Z,0.14
2023-02-03T14:38:11.458Z,-0.13
2023-02-03T14:40:56.831Z,-0.41
2023-02-03T14:43:43.580Z,0.02
2023-02-03T14:46:19.364Z,-0.04
2023-02-03T14:48:51.248Z,-0.30
2023-02-03T14:51:39.793Z,-0.15
2023-02-03T14:54:20.819Z,0.19
2023-02-03T14:57:24.221Z,0.39
2023-02-03T15:00:22.392Z,-0.09
2023-02-03T15:03:07.013Z,0.36
2023-02-03T15:05:47.843Z,0.57
2023-02-03T15:08:37.527Z,0.32
2023-02-03T15:11:32.985Z,0.22
2023-02-03T15:14:20.993Z,0.03
2023-02-03T15:16:55.186Z,0.09
2023-02-03T15:19:26.166Z,0.26
2023-02-03T15:21:52.934Z,0.22
2023-02-03T15:24:21.425Z,0.67
2023-02-03T15:26:50.868Z,0.41
2023-02-03T15:29:32.555Z,0.78
2023-02-03T15:32:10.431Z,0.73
2023-02-03T15:34:50.228Z,0.53
2023-02-03T15:37:28.710Z,0.67
2023-02-03T15:40:24.335Z,0.48
2023-02-03T15:43:10.963Z,0.89
2023-02-03T15:45:55.561Z,0.50
2023-02-03T15:48:46.931Z,0.50
2023-02-03T15:51:19.523Z,0.65
2023-02-03T15:53:55.098Z,0.69
2023-02-03T15:56:40.354Z,0.68
2023-02-03T15:59:23.419Z,0.86
2023-02-03T16:01:51.060Z,0.86
2023-02-03T16:04:18.420Z,0.74
2023-02-03T16:06:50.603Z,0.79
2023-02-03T16:09:34.900Z,0.69
2023-02-03T16:12:18.449Z,0.69
2023-02-03T16:14:46.448Z,0.88
2023-02-03T16:17:32.882Z,0.88
2023-02-03T16:20:11.653Z,0.97
2023-02-03T16:22:44.391Z,0.70
2023-02-03T16:25:23.768Z,0.95
2023-02-03T16:27:57.651Z,1.00
2023-02-03T16:30:25.225Z,0.75
2023-02-03T16:33:18.383Z,0.74
2023-02-03T16:35:44.991Z,0.81
2023-02-03T16:38:16.372Z,0.79
2023-02-03T16:40:47.592Z,0.79
2023-02-03T16:43:16.662Z,0.94
2023-02-03T16:45:43.413Z,1.10
2023-02-03T16:48:11.614Z,1.20
2023-02-03T16:50:39.682Z,0.88
2023-02-03T16:53:19.025Z,1.00
2023-02-03T16:55:46.395Z,0.66
2023-02-03T16:58:13.536Z,0.62
2023-02-03T17:00:41.404Z,0.82
2023-02-03T17:03:11.185Z,0.96
2023-02-03T17:05:39.691Z,0.83
2023-02-03T17:08:07.450Z,0.86
2023-02-03T17:10:34.943Z,0.81
2023-02-03T17:13:01.685Z,0.58
2023-02-03T17:15:28.616Z,0.68
2023-02-03T17:17:55.435Z,0.77
2023-02-03T17:20:22.124Z,1.14
2023-02-03T17:22:48.719Z,1.30
2023-02-03T17:25:15.330Z,1.10
2023-02-03T17:27:42.303Z,1.25
2023-02-03T17:30:09.584Z,1.43
2023-02-03T17:32:36.199Z,1.24
2023-02-03T17:35:02.796Z,1.27
2023-02-03T17:37:33.024Z,1.46
2023-02-03T17:53:58.808Z,0.95
2023-02-03T17:56:25.440Z,1.24
2023-02-03T17:58:56.579Z,1.41
2023-02-03T18:01:23.177Z,1.31
2023-02-03T18:04:01.375Z,1.28
2023-02-03T18:06:29.414Z,1.48
2023-02-03T18:08:58.944Z,1.29
2023-02-03T18:11:25.704Z,1.12
2023-02-03T18:13:52.333Z,1.57
2023-02-03T18:16:22.474Z,1.41
2023-02-03T18:18:49.084Z,1.47
2023-02-03T18:21:16.978Z,1.29
2023-02-03T18:23:43.581Z,1.31
2023-02-03T18:26:11.792Z,1.52
2023-02-03T18:28:39.493Z,1.47
2023-02-03T18:31:08.893Z,1.64
2023-02-03T18:33:36.878Z,1.71
2023-02-03T18:36:04.864Z,1.81
2023-02-03T18:38:33.369Z,1.83
2023-02-03T18:41:05.240Z,1.35
2023-02-03T18:43:31.917Z,1.64
2023-02-03T18:45:58.640Z,2.08
2023-02-03T18:48:27.788Z,1.79
2023-02-03T18:50:54.459Z,1.78
2023-02-03T18:53:21.132Z,1.93
2023-02-03T18:55:47.748Z,1.96
2023-02-03T18:58:14.437Z,1.78
2023-02-03T19:00:41.029Z,1.99
2023-02-03T19:03:08.635Z,1.71
2023-02-03T19:05:35.239Z,2.08
2023-02-03T19:08:01.832Z,2.04
2023-02-03T19:10:28.790Z,2.06
2023-02-03T19:12:55.736Z,1.99
2023-02-03T19:15:22.516Z,1.62
2023-02-03T19:17:49.121Z,2.07
2023-02-03T19:20:16.027Z,2.28
2023-02-03T19:22:42.606Z,2.58
2023-02-03T19:25:09.214Z,2.22
2023-02-03T19:27:35.880Z,2.33
2023-02-03T19:30:02.943Z,2.36
2023-02-03T19:32:31.091Z,2.35
2023-02-03T19:34:57.674Z,2.34
2023-02-03T19:37:24.318Z,2.41
2023-02-03T19:39:50.920Z,2.41
2023-02-03T19:42:18.211Z,2.47
2023-02-03T19:44:44.851Z,2.65
2023-02-03T19:47:11.516Z,2.47
2023-02-03T19:49:38.111Z,2.40
2023-02-03T19:52:04.862Z,2.39
2023-02-03T19:54:31.446Z,2.28
2023-02-03T19:56:58.045Z,2.16
2023-02-03T19:59:24.686Z,2.24
2023-02-03T20:01:51.322Z,2.22
2023-02-03T20:04:18.081Z,2.21
2023-02-03T20:06:44.750Z,2.15
2023-02-03T20:09:11.692Z,2.30
2023-02-03T20:11:38.299Z,2.19
2023-02-03T20:14:04.897Z,2.37
2023-02-03T20:16:31.570Z,2.32
2023-02-03T20:18:58.315Z,2.21
2023-02-03T20:21:24.905Z,2.09
2023-02-03T20:23:51.494Z,2.22
2023-02-03T20:26:18.172Z,2.12
2023-02-03T20:28:44.777Z,2.31
2023-02-03T20:31:11.473Z,2.25
2023-02-03T20:33:38.318Z,2.07
2023-02-03T20:36:05.715Z,2.08
2023-02-03T20:38:32.304Z,2.26
2023-02-03T20:40:58.859Z,2.20
2023-02-03T20:43:27.343Z,2.17
2023-02-03T20:45:54.728Z,2.06
2023-02-03T20:48:22.473Z,2.01
2023-02-03T20:50:49.778Z,2.08
2023-02-03T20:53:19.698Z,2.08
2023-02-03T20:55:47.312Z,2.05
2023-02-03T20:58:16.941Z,1.97
2023-02-03T21:00:43.740Z,1.94
2023-02-03T21:03:12.288Z,2.05
2023-02-03T21:05:42.386Z,2.01
2023-02-03T21:08:19.835Z,2.14
2023-02-03T21:10:47.781Z,2.11
2023-02-03T21:13:23.846Z,2.09
2023-02-03T21:15:53.230Z,2.12
2023-02-03T21:18:48.783Z,2.21
2023-02-03T21:21:19.478Z,2.06
2023-02-03T21:23:47.720Z,1.98
2023-02-03T21:26:22.363Z,2.05
2023-02-03T21:28:53.972Z,2.03
2023-02-03T21:31:24.593Z,2.05
2023-02-03T21:33:53.480Z,2.23
2023-02-03T21:36:25.957Z,2.06
2023-02-03T21:38:57.513Z,2.18
2023-02-03T21:41:25.577Z,2.21
2023-02-03T21:43:54.470Z,2.05
2023-02-03T21:46:33.335Z,2.11
2023-02-03T21:49:01.577Z,2.07
2023-02-03T21:51:35.093Z,2.23
2023-02-03T21:54:04.074Z,2.21
2023-02-03T21:56:41.951Z,2.17
2023-02-03T21:59:16.220Z,2.16
2023-02-03T22:01:42.868Z,2.28
2023-02-03T22:04:09.516Z,2.01
2023-02-03T22:06:47.358Z,2.10
2023-02-03T22:09:18.806Z,2.04
2023-02-03T22:11:45.783Z,1.94
2023-02-03T22:14:17.168Z,1.98
2023-02-03T22:16:44.741Z,2.07
2023-02-03T22:19:11.643Z,2.08
2023-02-03T22:21:38.668Z,2.08
2023-02-03T22:24:05.716Z,2.05
2023-02-03T22:26:32.402Z,2.00
2023-02-03T22:28:59.188Z,1.92
2023-02-03T22:31:25.911Z,2.05
2023-02-03T22:33:52.657Z,1.99
2023-02-03T22:36:19.381Z,2.16
2023-02-03T22:38:45.992Z,2.01
2023-02-03T22:41:12.630Z,2.14
2023-02-03T22:43:39.586Z,1.98
2023-02-03T22:46:06.959Z,2.00
2023-02-03T22:48:34.093Z,2.16
2023-02-03T22:51:01.072Z,2.16
2023-02-03T22:53:28.596Z,2.21
2023-02-03T22:55:55.232Z,2.27
2023-02-03T22:58:21.832Z,2.10
2023-02-03T23:00:48.579Z,2.13
2023-02-03T23:03:15.222Z,2.24
2023-02-03T23:05:41.887Z,2.10
2023-02-03T23:08:08.474Z,2.11
2023-02-03T23:10:35.141Z,2.26
2023-02-03T23:13:02.212Z,2.29
2023-02-03T23:15:29.185Z,2.27
2023-02-03T23:17:56.159Z,2.34
2023-02-03T23:20:22.826Z,2.45
2023-02-03T23:22:52.585Z,2.33
2023-02-03T23:25:19.290Z,2.51
2023-02-03T23:27:45.984Z,2.39
2023-02-03T23:30:13.755Z,2.49
2023-02-03T23:32:40.399Z,2.61
2023-02-03T23:35:07.812Z,2.50
2023-02-03T23:37:34.385Z,2.50
2023-02-03T23:40:00.997Z,2.48
2023-02-03T23:42:27.660Z,2.57
2023-02-03T23:44:54.287Z,2.68
2023-02-03T23:47:20.872Z,2.84
2023-02-03T23:49:47.622Z,2.97
2023-02-03T23:52:14.226Z,2.80
2023-02-03T23:54:40.810Z,2.77
2023-02-03T23:57:07.545Z,2.94
2023-02-03T23:59:34.271Z,3.12
